createdAt,value
2019-01-20T00:02:48.324Z,86.90
2019-01-20T00:07:52.974Z,87.10
2019-01-20T00:12:57.655Z,86.90
2019-01-20T00:18:02.291Z,86.90
2019-01-20T00:23:07.850Z,87.10
2019-01-20T00:28:12.453Z,87.30
2019-01-20T00:33:20.661Z,87.30
2019-01-20T00:38:25.235Z,87.30
2019-01-20T00:43:29.726Z,87.20
2019-01-20T00:48:34.308Z,87.00
2019-01-20T00:53:38.873Z,87.40
2019-01-20T00:58:43.437Z,87.10
2019-01-20T01:03:48.042Z,87.20
2019-01-20T01:08:52.620Z,87.20
2019-01-20T01:13:57.227Z,87.30
2019-01-20T01:19:01.752Z,87.30
2019-01-20T01:24:06.270Z,87.10
2019-01-20T01:29:10.841Z,87.10
2019-01-20T01:34:15.337Z,87.20
2019-01-20T01:39:19.949Z,87.40
2019-01-20T01:44:24.554Z,87.10
2019-01-20T01:49:29.161Z,86.90
2019-01-20T01:54:33.747Z,87.20
2019-01-20T01:59:38.323Z,87.40
2019-01-20T02:04:42.826Z,87.40
2019-01-20T02:09:47.420Z,87.10
2019-01-20T02:14:51.988Z,87.30
2019-01-20T02:19:56.473Z,86.80
2019-01-20T02:25:01.062Z,87.50
2019-01-20T02:30:08.309Z,87.00
2019-01-20T02:35:12.143Z,87.40
2019-01-20T02:40:17.190Z,86.90
2019-01-20T02:45:21.838Z,87.10
2019-01-20T02:50:26.427Z,87.10
2019-01-20T02:55:30.961Z,87.20
2019-01-20T03:00:35.554Z,87.70
2019-01-20T03:05:40.062Z,87.40
2019-01-20T03:10:44.621Z,87.50
2019-01-20T03:15:49.212Z,87.80
2019-01-20T03:20:53.990Z,87.80
2019-01-20T03:25:58.522Z,87.40
2019-01-20T03:31:02.998Z,87.40
2019-01-20T03:36:07.617Z,87.60
2019-01-20T03:41:12.219Z,87.00
2019-01-20T03:46:16.801Z,87.40
2019-01-20T03:51:21.338Z,87.40
2019-01-20T03:56:25.931Z,88.10
2019-01-20T04:01:30.430Z,87.10
2019-01-20T04:06:35.112Z,87.50
2019-01-20T04:11:39.713Z,87.20
2019-01-20T04:16:44.203Z,87.80
2019-01-20T04:21:48.785Z,88.10
2019-01-20T04:26:53.383Z,88.10
2019-01-20T04:31:58.002Z,88.60
2019-01-20T04:37:02.601Z,89.00
2019-01-20T04:42:07.097Z,88.80
2019-01-20T04:47:11.681Z,88.50
2019-01-20T04:52:16.264Z,88.90
2019-01-20T04:57:22.230Z,88.70
2019-01-20T05:02:26.812Z,88.50
2019-01-20T05:07:31.381Z,88.60
2019-01-20T05:12:37.696Z,88.40
2019-01-20T05:17:42.210Z,88.70
2019-01-20T05:22:46.892Z,88.60
2019-01-20T05:27:51.429Z,88.40
2019-01-20T05:32:55.999Z,88.30
2019-01-20T05:38:00.597Z,88.30
2019-01-20T05:43:05.208Z,88.30
2019-01-20T05:48:09.793Z,88.30
2019-01-20T05:53:14.323Z,88.50
2019-01-20T05:58:18.857Z,88.50
2019-01-20T06:03:23.339Z,88.60
2019-01-20T06:08:27.943Z,88.50
2019-01-20T06:13:32.593Z,88.50
2019-01-20T06:18:37.177Z,88.60
2019-01-20T06:23:41.766Z,88.60
2019-01-20T06:28:46.339Z,88.40
2019-01-20T06:33:50.947Z,88.30
2019-01-20T06:38:55.521Z,88.20
2019-01-20T06:43:59.997Z,88.30
2019-01-20T06:49:04.638Z,88.30
2019-01-20T06:54:09.261Z,88.40
2019-01-20T06:59:13.886Z,88.30
2019-01-20T07:04:18.451Z,88.30
2019-01-20T07:09:23.033Z,88.30
2019-01-20T07:14:27.686Z,88.30
2019-01-20T07:19:34.739Z,88.50
2019-01-20T07:24:39.307Z,88.50
2019-01-20T07:29:43.885Z,88.40
2019-01-20T07:34:48.425Z,88.60
2019-01-20T07:39:52.950Z,88.60
2019-01-20T07:44:57.526Z,88.60
2019-01-20T07:50:03.478Z,88.50
2019-01-20T07:55:09.047Z,88.90
2019-01-20T08:00:15.874Z,88.70
2019-01-20T08:05:20.597Z,88.70
2019-01-20T08:10:29.917Z,89.40
2019-01-20T08:15:34.509Z,89.80
2019-01-20T08:20:39.126Z,89.80
2019-01-20T08:25:43.886Z,89.70
2019-01-20T08:30:48.464Z,89.60
2019-01-20T08:35:53.067Z,89.40
2019-01-20T08:40:57.674Z,89.30
2019-01-20T08:46:45.091Z,89.40
2019-01-20T08:51:49.601Z,89.40
2019-01-20T08:56:54.118Z,90.10
2019-01-20T09:01:58.726Z,89.50
2019-01-20T09:07:03.308Z,89.70
2019-01-20T09:12:07.892Z,89.70
2019-01-20T09:17:12.512Z,89.80
2019-01-20T09:22:17.034Z,89.70
2019-01-20T09:27:21.554Z,89.80
2019-01-20T09:32:26.137Z,89.30
2019-01-20T09:37:30.646Z,88.80
2019-01-20T09:42:35.288Z,88.60
2019-01-20T09:47:40.855Z,88.20
2019-01-20T09:52:45.499Z,87.80
2019-01-20T09:57:50.089Z,87.40
2019-01-20T10:02:55.006Z,86.80
2019-01-20T10:07:59.573Z,86.40
2019-01-20T10:13:04.170Z,86.30
2019-01-20T10:18:08.771Z,86.30
2019-01-20T10:23:13.307Z,86.30
2019-01-20T10:28:20.640Z,86.40
2019-01-20T10:33:25.222Z,86.20
2019-01-20T10:38:29.816Z,86.30
2019-01-20T10:43:34.444Z,86.20
2019-01-20T10:48:38.980Z,86.20
2019-01-20T10:53:43.619Z,86.10
2019-01-20T10:58:48.198Z,85.90
2019-01-20T11:03:52.758Z,85.80
2019-01-20T11:08:57.373Z,85.60
2019-01-20T11:14:01.959Z,85.60
2019-01-20T11:19:06.581Z,85.40
2019-01-20T11:24:11.156Z,85.50
2019-01-20T11:29:15.904Z,85.20
2019-01-20T11:34:20.490Z,85.00
2019-01-20T11:39:25.151Z,85.10
2019-01-20T11:44:29.703Z,84.90
2019-01-20T11:49:34.229Z,84.80
2019-01-20T11:54:38.827Z,84.30
2019-01-20T11:59:43.441Z,84.20
2019-01-20T12:04:48.023Z,84.10
2019-01-20T12:09:52.653Z,84.00
2019-01-20T12:14:57.165Z,83.80
2019-01-20T12:20:01.943Z,83.40
2019-01-20T12:25:08.778Z,82.90
2019-01-20T12:30:16.854Z,83.10
2019-01-20T12:35:21.450Z,82.50
2019-01-20T12:40:29.570Z,82.50
2019-01-20T12:45:34.212Z,82.40
2019-01-20T12:50:38.802Z,81.90
2019-01-20T12:55:43.398Z,82.10
2019-01-20T13:00:48.059Z,81.00
2019-01-20T13:05:52.790Z,80.90
2019-01-20T13:10:57.395Z,80.40
2019-01-20T13:16:01.988Z,81.00
2019-01-20T13:21:08.067Z,80.60
2019-01-20T13:26:12.747Z,80.30
2019-01-20T13:31:17.325Z,79.90
2019-01-20T13:36:21.897Z,79.70
2019-01-20T13:41:29.324Z,79.70
2019-01-20T13:46:33.933Z,80.00
2019-01-20T13:51:38.537Z,79.80
2019-01-20T13:56:43.051Z,79.70
2019-01-20T14:01:47.651Z,79.50
2019-01-20T14:06:52.279Z,79.40
2019-01-20T14:11:56.853Z,79.40
2019-01-20T14:17:01.473Z,78.90
2019-01-20T14:22:05.994Z,78.50
2019-01-20T14:27:10.589Z,78.70
2019-01-20T14:32:15.163Z,77.90
2019-01-20T14:37:19.720Z,77.90
2019-01-20T14:42:24.240Z,77.40
2019-01-20T14:47:28.844Z,78.40
2019-01-20T14:52:33.386Z,77.40
2019-01-20T14:57:38.556Z,77.90
2019-01-20T15:02:43.762Z,78.00
2019-01-20T15:07:48.374Z,77.30
2019-01-20T15:12:52.972Z,76.50
2019-01-20T15:17:57.987Z,77.10
2019-01-20T15:23:02.840Z,76.60
2019-01-20T15:28:07.999Z,76.50
2019-01-20T15:33:12.607Z,75.90
2019-01-20T15:38:17.291Z,75.70
2019-01-20T15:43:21.862Z,75.80
2019-01-20T15:48:26.468Z,76.30
2019-01-20T15:53:31.029Z,76.40
2019-01-20T15:58:35.731Z,76.00
2019-01-20T16:03:40.403Z,76.10
2019-01-20T16:08:45.072Z,76.20
2019-01-20T16:13:49.606Z,76.10
2019-01-20T16:18:54.505Z,76.20
2019-01-20T16:23:59.079Z,76.30
2019-01-20T16:29:03.665Z,75.00
2019-01-20T16:34:08.319Z,73.60
2019-01-20T16:39:12.933Z,74.60
2019-01-20T16:44:17.586Z,75.00
2019-01-20T16:49:22.247Z,75.70
2019-01-20T16:54:26.966Z,75.50
2019-01-20T16:59:31.505Z,74.80
2019-01-20T17:04:36.152Z,75.20
2019-01-20T17:09:42.023Z,75.70
2019-01-20T17:14:46.584Z,75.30
2019-01-20T17:19:51.282Z,75.80
2019-01-20T17:24:56.132Z,76.20
2019-01-20T17:30:00.780Z,76.70
2019-01-20T17:35:06.231Z,77.00
2019-01-20T17:40:14.079Z,77.50
2019-01-20T17:45:21.421Z,77.80
2019-01-20T17:50:31.525Z,77.90
2019-01-20T17:55:36.351Z,78.20
2019-01-20T18:00:56.970Z,78.30
2019-01-20T18:06:01.574Z,78.60
2019-01-20T18:11:06.213Z,78.70
2019-01-20T18:16:10.873Z,78.80
2019-01-20T18:21:15.530Z,78.90
2019-01-20T18:26:20.095Z,79.00
2019-01-20T18:31:24.705Z,79.10
2019-01-20T18:36:29.331Z,79.00
2019-01-20T18:41:34.034Z,79.30
2019-01-20T18:46:38.689Z,79.80
2019-01-20T18:51:43.381Z,79.50
2019-01-20T18:56:48.054Z,79.60
2019-01-20T19:01:52.693Z,79.60
2019-01-20T19:06:57.275Z,79.90
2019-01-20T19:12:02.151Z,78.80
2019-01-20T19:17:06.959Z,79.20
2019-01-20T19:22:11.870Z,79.10
2019-01-20T19:27:16.510Z,79.40
2019-01-20T19:32:21.226Z,79.70
2019-01-20T19:37:25.798Z,79.90
2019-01-20T19:42:30.370Z,80.10
2019-01-20T19:47:34.989Z,80.30
2019-01-20T19:52:39.503Z,80.60
2019-01-20T19:57:44.173Z,80.40
2019-01-20T20:02:48.850Z,80.30
2019-01-20T20:07:54.110Z,80.50
2019-01-20T20:12:59.201Z,80.70
2019-01-20T20:18:03.931Z,81.00
2019-01-20T20:23:08.566Z,81.30
2019-01-20T20:28:13.119Z,81.30
2019-01-20T20:33:17.702Z,81.40
2019-01-20T20:38:22.321Z,81.60
2019-01-20T20:43:26.922Z,81.70
2019-01-20T20:48:31.545Z,81.80
2019-01-20T20:53:36.118Z,81.80
2019-01-20T20:58:40.762Z,81.90
2019-01-20T21:03:46.234Z,82.00
2019-01-20T21:08:50.841Z,82.10
2019-01-20T21:13:55.464Z,82.30
2019-01-20T21:19:00.082Z,82.40
2019-01-20T21:24:04.667Z,82.60
2019-01-20T21:29:09.367Z,82.30
2019-01-20T21:34:14.006Z,82.10
2019-01-20T21:39:18.693Z,82.30
2019-01-20T21:44:23.285Z,82.90
2019-01-20T21:49:27.820Z,82.80
2019-01-20T21:54:32.448Z,83.40
2019-01-20T21:59:37.073Z,83.70
2019-01-20T22:04:41.684Z,83.40
2019-01-20T22:09:46.285Z,82.90
2019-01-20T22:14:51.050Z,82.60
2019-01-20T22:19:55.630Z,82.80
2019-01-20T22:25:01.370Z,83.30
2019-01-20T22:30:08.483Z,82.80
2019-01-20T22:35:13.314Z,83.20
2019-01-20T22:40:18.303Z,83.20
2019-01-20T22:45:25.031Z,83.10
2019-01-20T22:50:29.690Z,83.90
2019-01-20T22:55:34.622Z,85.20
2019-01-20T23:01:15.678Z,85.00
2019-01-20T23:06:20.295Z,84.80
2019-01-20T23:11:25.241Z,84.20
2019-01-20T23:16:30.030Z,83.70
2019-01-20T23:21:34.614Z,84.00
2019-01-20T23:26:47.277Z,84.40
2019-01-20T23:31:52.813Z,83.70
2019-01-20T23:36:57.399Z,84.00
2019-01-20T23:42:01.997Z,83.50
2019-01-20T23:47:06.598Z,83.90
2019-01-20T23:52:11.190Z,83.50
2019-01-20T23:57:15.698Z,84.00
